Lakeland, MI (48143)

3:08 PM EDT on April 28, 2017 (GMT -0400)
Bass Ridge, Bass Lake | | Change Station

Elev 886 ft 42.46 °N, 83.87 °W | Updated 14 seconds ago

Mostly Cloudy
Mostly Cloudy
63.9 °F
Feels Like 63.9 °F
N
5.4
Wind Variable Wind from South
Gusts 10.7 mph

Today
High -- | Low -- °F
--% Chance of Precip.
Yesterday
High -- | Low -- °F
Precip. -- in
Pressure 29.97 in
Visibility 10.0 miles
Clouds Scattered Clouds 4600 ft
Scattered Clouds 5500 ft
Overcast 12000 ft
Dew Point 45 °F
Humidity 51%
Rainfall 0.00 in
Snow Depth Not available.
6:34 AM 8:32 PM
Waxing Crescent, 8% visible
METAR KOZW 281854Z AUTO 20009KT 170V230 10SM SCT046 SCT055 OVC120 17/05 A2997 RMK AO2 T01720049
Pressure 29.97 in
Visibility 10.0 miles
Clouds Scattered Clouds 4600 ft
Scattered Clouds 5500 ft
Overcast 12000 ft
Dew Point 45 °F
Humidity 51%
Rainfall 0.00 in
Snow Depth Not available.
6:34 AM 8:32 PM
Waxing Crescent, 8% visible
METAR KOZW 281854Z AUTO 20009KT 170V230 10SM SCT046 SCT055 OVC120 17/05 A2997 RMK AO2 T01720049

Get Severe Weather Alerts

Thanks for signing up!

Be on the lookout for a verification email in your inbox.

You'll start receiving the daily forecast at 8 AM.

×

10-Day Weather Forecast

Almanac

Astronomy

Apr. 28, 2017 Rise Set
Actual Time
Civil Twilight
Nautical Twilight
Astronomical Twilight
Moon
Length of Visible Light
Length of Day
Tomorrow will be .
, % of the Moon is Illuminated

Today's Extremes

State Highs State Lows

Community

WunderPhotos

WunderBlog® & News

Nearby

Air Quality

  Air Quality AQ Index Pollutant
Not available.

Snow Depth

Station Depth Elevation

Earthquake Activity

City Distance Mag. Time & Date
Minimum magnitude displayed is 2.5.

Coastal Water Temperatures

Place Temperature

Stations

Nearby Weather Stations

Station Location Temp. Windchill Dew Point Humidity Wind Precip. Elev Updated Type
                   

Watches & Warnings

There are currently no watches in effect.